sensor_id;sensor_type;location;lat;lon;timestamp;P1;durP1;ratioP1;P2;durP2;ratioP2
54167;SDS011;40072;50.958;3.592;2022-07-22T00:00:12;12.32;;;2.58;;
54167;SDS011;40072;50.958;3.592;2022-07-22T00:02:39;14.18;;;2.83;;
54167;SDS011;40072;50.958;3.592;2022-07-22T00:05:05;9.77;;;3.03;;
54167;SDS011;40072;50.958;3.592;2022-07-22T00:07:31;17.35;;;3.25;;
54167;SDS011;40072;50.958;3.592;2022-07-22T00:09:57;17.73;;;2.90;;
54167;SDS011;40072;50.958;3.592;2022-07-22T00:12:22;16.90;;;3.55;;
54167;SDS011;40072;50.958;3.592;2022-07-22T00:14:48;15.35;;;3.35;;
54167;SDS011;40072;50.958;3.592;2022-07-22T00:17:14;12.93;;;3.30;;
54167;SDS011;40072;50.958;3.592;2022-07-22T00:19:39;17.50;;;3.33;;
54167;SDS011;40072;50.958;3.592;2022-07-22T00:22:05;12.27;;;3.25;;
54167;SDS011;40072;50.958;3.592;2022-07-22T00:24:31;11.73;;;3.15;;
54167;SDS011;40072;50.958;3.592;2022-07-22T00:26:57;16.08;;;3.55;;
54167;SDS011;40072;50.958;3.592;2022-07-22T00:29:22;9.40;;;3.67;;
54167;SDS011;40072;50.958;3.592;2022-07-22T00:31:48;17.08;;;3.13;;
54167;SDS011;40072;50.958;3.592;2022-07-22T00:34:14;11.25;;;3.42;;
54167;SDS011;40072;50.958;3.592;2022-07-22T00:36:40;13.30;;;2.83;;
54167;SDS011;40072;50.958;3.592;2022-07-22T00:39:06;10.68;;;3.15;;
54167;SDS011;40072;50.958;3.592;2022-07-22T00:41:31;11.77;;;3.28;;
54167;SDS011;40072;50.958;3.592;2022-07-22T00:43:58;11.65;;;3.08;;
54167;SDS011;40072;50.958;3.592;2022-07-22T00:46:26;12.53;;;3.87;;
54167;SDS011;40072;50.958;3.592;2022-07-22T00:48:53;8.15;;;3.17;;
54167;SDS011;40072;50.958;3.592;2022-07-22T00:51:19;11.23;;;3.25;;
54167;SDS011;40072;50.958;3.592;2022-07-22T00:53:46;12.60;;;3.13;;
54167;SDS011;40072;50.958;3.592;2022-07-22T00:56:12;12.77;;;3.45;;
54167;SDS011;40072;50.958;3.592;2022-07-22T00:58:38;9.50;;;3.10;;
54167;SDS011;40072;50.958;3.592;2022-07-22T01:01:05;8.32;;;3.13;;
54167;SDS011;40072;50.958;3.592;2022-07-22T01:03:30;23.05;;;3.78;;
54167;SDS011;40072;50.958;3.592;2022-07-22T01:05:56;13.35;;;3.40;;
54167;SDS011;40072;50.958;3.592;2022-07-22T01:08:22;17.85;;;4.78;;
54167;SDS011;40072;50.958;3.592;2022-07-22T01:10:48;11.50;;;3.88;;
54167;SDS011;40072;50.958;3.592;2022-07-22T01:13:14;12.45;;;3.88;;
54167;SDS011;40072;50.958;3.592;2022-07-22T01:15:40;14.98;;;4.63;;
54167;SDS011;40072;50.958;3.592;2022-07-22T01:18:05;18.98;;;4.60;;
54167;SDS011;40072;50.958;3.592;2022-07-22T01:20:31;11.95;;;4.80;;
54167;SDS011;40072;50.958;3.592;2022-07-22T01:22:57;17.60;;;4.88;;
54167;SDS011;40072;50.958;3.592;2022-07-22T01:25:22;19.83;;;4.88;;
54167;SDS011;40072;50.958;3.592;2022-07-22T01:27:48;20.63;;;5.25;;
54167;SDS011;40072;50.958;3.592;2022-07-22T01:30:14;20.83;;;5.82;;
54167;SDS011;40072;50.958;3.592;2022-07-22T01:32:39;16.48;;;5.47;;
54167;SDS011;40072;50.958;3.592;2022-07-22T01:35:05;15.65;;;5.47;;
54167;SDS011;40072;50.958;3.592;2022-07-22T01:37:32;25.20;;;6.57;;
54167;SDS011;40072;50.958;3.592;2022-07-22T01:39:58;23.63;;;5.78;;
54167;SDS011;40072;50.958;3.592;2022-07-22T01:42:24;13.35;;;4.97;;
54167;SDS011;40072;50.958;3.592;2022-07-22T01:44:50;18.38;;;5.43;;
54167;SDS011;40072;50.958;3.592;2022-07-22T01:47:16;19.10;;;5.00;;
54167;SDS011;40072;50.958;3.592;2022-07-22T01:49:42;17.88;;;5.70;;
54167;SDS011;40072;50.958;3.592;2022-07-22T01:52:08;17.92;;;5.10;;
54167;SDS011;40072;50.958;3.592;2022-07-22T01:54:33;12.80;;;4.40;;
54167;SDS011;40072;50.958;3.592;2022-07-22T01:57:00;14.07;;;4.50;;
54167;SDS011;40072;50.958;3.592;2022-07-22T01:59:25;12.13;;;4.75;;
54167;SDS011;40072;50.958;3.592;2022-07-22T02:01:51;17.02;;;6.05;;
54167;SDS011;40072;50.958;3.592;2022-07-22T02:04:17;17.42;;;5.25;;
54167;SDS011;40072;50.958;3.592;2022-07-22T02:06:42;11.32;;;4.97;;
54167;SDS011;40072;50.958;3.592;2022-07-22T02:09:08;13.07;;;5.90;;
54167;SDS011;40072;50.958;3.592;2022-07-22T02:11:34;14.57;;;5.05;;
54167;SDS011;40072;50.958;3.592;2022-07-22T02:14:00;12.75;;;4.95;;
54167;SDS011;40072;50.958;3.592;2022-07-22T02:16:26;17.45;;;5.45;;
54167;SDS011;40072;50.958;3.592;2022-07-22T02:18:52;13.90;;;5.95;;
54167;SDS011;40072;50.958;3.592;2022-07-22T02:21:18;11.68;;;4.53;;
54167;SDS011;40072;50.958;3.592;2022-07-22T02:23:43;12.25;;;5.38;;
54167;SDS011;40072;50.958;3.592;2022-07-22T02:26:09;12.65;;;4.88;;
54167;SDS011;40072;50.958;3.592;2022-07-22T02:28:35;15.95;;;5.13;;
54167;SDS011;40072;50.958;3.592;2022-07-22T02:31:01;16.05;;;4.93;;
54167;SDS011;40072;50.958;3.592;2022-07-22T02:33:29;12.05;;;5.00;;
54167;SDS011;40072;50.958;3.592;2022-07-22T02:35:55;14.57;;;4.72;;
54167;SDS011;40072;50.958;3.592;2022-07-22T02:38:21;11.27;;;4.60;;
54167;SDS011;40072;50.958;3.592;2022-07-22T02:40:47;12.32;;;4.93;;
54167;SDS011;40072;50.958;3.592;2022-07-22T02:43:13;11.80;;;5.18;;
54167;SDS011;40072;50.958;3.592;2022-07-22T02:45:38;14.55;;;5.10;;
54167;SDS011;40072;50.958;3.592;2022-07-22T02:48:05;11.13;;;4.10;;
54167;SDS011;40072;50.958;3.592;2022-07-22T02:50:30;14.93;;;4.97;;
54167;SDS011;40072;50.958;3.592;2022-07-22T02:52:57;17.25;;;5.53;;
54167;SDS011;40072;50.958;3.592;2022-07-22T02:55:24;9.52;;;4.68;;
54167;SDS011;40072;50.958;3.592;2022-07-22T02:57:49;10.80;;;5.20;;
54167;SDS011;40072;50.958;3.592;2022-07-22T03:00:15;11.20;;;4.68;;
54167;SDS011;40072;50.958;3.592;2022-07-22T03:02:41;11.57;;;4.00;;
54167;SDS011;40072;50.958;3.592;2022-07-22T03:05:07;12.25;;;4.72;;
54167;SDS011;40072;50.958;3.592;2022-07-22T03:07:33;10.32;;;4.40;;
54167;SDS011;40072;50.958;3.592;2022-07-22T03:09:59;14.82;;;4.95;;
54167;SDS011;40072;50.958;3.592;2022-07-22T03:12:25;16.40;;;4.80;;
54167;SDS011;40072;50.958;3.592;2022-07-22T03:14:50;11.68;;;4.72;;
54167;SDS011;40072;50.958;3.592;2022-07-22T03:17:16;13.35;;;4.75;;
54167;SDS011;40072;50.958;3.592;2022-07-22T03:19:42;13.07;;;5.00;;
54167;SDS011;40072;50.958;3.592;2022-07-22T03:22:07;9.75;;;4.55;;
54167;SDS011;40072;50.958;3.592;2022-07-22T03:24:33;15.25;;;4.88;;
54167;SDS011;40072;50.958;3.592;2022-07-22T03:26:59;24.75;;;5.05;;
54167;SDS011;40072;50.958;3.592;2022-07-22T03:29:25;21.08;;;5.38;;
54167;SDS011;40072;50.958;3.592;2022-07-22T03:31:50;10.20;;;4.70;;
54167;SDS011;40072;50.958;3.592;2022-07-22T03:34:16;15.10;;;4.60;;
54167;SDS011;40072;50.958;3.592;2022-07-22T03:36:42;10.07;;;5.00;;
54167;SDS011;40072;50.958;3.592;2022-07-22T03:39:07;14.27;;;5.38;;
54167;SDS011;40072;50.958;3.592;2022-07-22T03:41:33;14.73;;;5.07;;
54167;SDS011;40072;50.958;3.592;2022-07-22T03:43:59;12.23;;;4.82;;
54167;SDS011;40072;50.958;3.592;2022-07-22T03:46:24;10.45;;;4.53;;
54167;SDS011;40072;50.958;3.592;2022-07-22T03:48:50;12.85;;;5.32;;
54167;SDS011;40072;50.958;3.592;2022-07-22T03:51:15;7.97;;;4.25;;
54167;SDS011;40072;50.958;3.592;2022-07-22T03:53:41;13.50;;;3.95;;
54167;SDS011;40072;50.958;3.592;2022-07-22T03:56:07;11.30;;;5.20;;
54167;SDS011;40072;50.958;3.592;2022-07-22T03:58:32;11.13;;;5.03;;
54167;SDS011;40072;50.958;3.592;2022-07-22T04:00:58;22.10;;;5.95;;
54167;SDS011;40072;50.958;3.592;2022-07-22T04:03:24;14.45;;;5.13;;
54167;SDS011;40072;50.958;3.592;2022-07-22T04:05:49;13.30;;;5.57;;
54167;SDS011;40072;50.958;3.592;2022-07-22T04:08:17;15.85;;;5.57;;
54167;SDS011;40072;50.958;3.592;2022-07-22T04:10:43;17.98;;;5.60;;
54167;SDS011;40072;50.958;3.592;2022-07-22T04:13:10;12.10;;;4.97;;
54167;SDS011;40072;50.958;3.592;2022-07-22T04:15:36;16.90;;;5.55;;
54167;SDS011;40072;50.958;3.592;2022-07-22T04:18:01;13.52;;;5.25;;
54167;SDS011;40072;50.958;3.592;2022-07-22T04:20:27;14.68;;;5.28;;
54167;SDS011;40072;50.958;3.592;2022-07-22T04:22:53;18.50;;;5.28;;
54167;SDS011;40072;50.958;3.592;2022-07-22T04:25:19;16.50;;;6.00;;
54167;SDS011;40072;50.958;3.592;2022-07-22T04:27:44;16.50;;;5.93;;
54167;SDS011;40072;50.958;3.592;2022-07-22T04:30:10;16.85;;;5.65;;
54167;SDS011;40072;50.958;3.592;2022-07-22T04:32:36;15.68;;;5.70;;
54167;SDS011;40072;50.958;3.592;2022-07-22T04:35:02;18.27;;;5.55;;
54167;SDS011;40072;50.958;3.592;2022-07-22T04:37:29;9.85;;;5.22;;
54167;SDS011;40072;50.958;3.592;2022-07-22T04:39:55;14.77;;;5.25;;
54167;SDS011;40072;50.958;3.592;2022-07-22T04:42:21;11.13;;;5.00;;
54167;SDS011;40072;50.958;3.592;2022-07-22T04:44:46;16.73;;;4.72;;
54167;SDS011;40072;50.958;3.592;2022-07-22T04:47:12;21.05;;;5.63;;
54167;SDS011;40072;50.958;3.592;2022-07-22T04:49:38;11.57;;;5.00;;
54167;SDS011;40072;50.958;3.592;2022-07-22T04:52:03;15.20;;;5.07;;
54167;SDS011;40072;50.958;3.592;2022-07-22T04:54:29;25.70;;;5.95;;
54167;SDS011;40072;50.958;3.592;2022-07-22T04:56:55;15.00;;;5.15;;
54167;SDS011;40072;50.958;3.592;2022-07-22T04:59:20;14.68;;;5.55;;
54167;SDS011;40072;50.958;3.592;2022-07-22T05:01:46;11.05;;;4.70;;
54167;SDS011;40072;50.958;3.592;2022-07-22T05:04:11;21.42;;;5.32;;
54167;SDS011;40072;50.958;3.592;2022-07-22T05:06:38;18.27;;;5.03;;
54167;SDS011;40072;50.958;3.592;2022-07-22T05:09:07;15.07;;;4.65;;
54167;SDS011;40072;50.958;3.592;2022-07-22T05:11:32;14.80;;;4.97;;
54167;SDS011;40072;50.958;3.592;2022-07-22T05:13:58;13.10;;;4.78;;
54167;SDS011;40072;50.958;3.592;2022-07-22T05:16:24;13.98;;;4.70;;
54167;SDS011;40072;50.958;3.592;2022-07-22T05:18:49;21.50;;;4.75;;
54167;SDS011;40072;50.958;3.592;2022-07-22T05:21:15;15.30;;;4.15;;
54167;SDS011;40072;50.958;3.592;2022-07-22T05:23:41;11.68;;;4.15;;
54167;SDS011;40072;50.958;3.592;2022-07-22T05:26:07;11.60;;;4.30;;
54167;SDS011;40072;50.958;3.592;2022-07-22T05:28:34;15.98;;;4.68;;
54167;SDS011;40072;50.958;3.592;2022-07-22T05:31:00;12.77;;;3.60;;
54167;SDS011;40072;50.958;3.592;2022-07-22T05:33:26;11.40;;;3.65;;
54167;SDS011;40072;50.958;3.592;2022-07-22T05:35:51;12.80;;;4.40;;
54167;SDS011;40072;50.958;3.592;2022-07-22T05:38:17;12.95;;;3.63;;
54167;SDS011;40072;50.958;3.592;2022-07-22T05:40:43;21.52;;;4.38;;
54167;SDS011;40072;50.958;3.592;2022-07-22T05:43:08;12.75;;;3.47;;
54167;SDS011;40072;50.958;3.592;2022-07-22T05:45:34;12.73;;;3.67;;
54167;SDS011;40072;50.958;3.592;2022-07-22T05:48:00;10.57;;;3.38;;
54167;SDS011;40072;50.958;3.592;2022-07-22T05:50:26;15.38;;;3.25;;
54167;SDS011;40072;50.958;3.592;2022-07-22T05:52:52;14.02;;;3.05;;
54167;SDS011;40072;50.958;3.592;2022-07-22T05:55:17;13.73;;;3.53;;
54167;SDS011;40072;50.958;3.592;2022-07-22T05:57:43;12.85;;;3.63;;
54167;SDS011;40072;50.958;3.592;2022-07-22T06:00:09;10.77;;;3.40;;
54167;SDS011;40072;50.958;3.592;2022-07-22T06:02:35;17.77;;;3.45;;
54167;SDS011;40072;50.958;3.592;2022-07-22T06:05:00;8.77;;;3.08;;
54167;SDS011;40072;50.958;3.592;2022-07-22T06:07:26;11.38;;;3.42;;
54167;SDS011;40072;50.958;3.592;2022-07-22T06:09:52;9.93;;;2.85;;
54167;SDS011;40072;50.958;3.592;2022-07-22T06:12:19;12.50;;;3.08;;
54167;SDS011;40072;50.958;3.592;2022-07-22T06:14:45;13.68;;;3.60;;
54167;SDS011;40072;50.958;3.592;2022-07-22T06:17:11;9.15;;;2.88;;
54167;SDS011;40072;50.958;3.592;2022-07-22T06:19:37;11.32;;;2.72;;
54167;SDS011;40072;50.958;3.592;2022-07-22T06:22:03;15.85;;;3.20;;
54167;SDS011;40072;50.958;3.592;2022-07-22T06:24:29;9.10;;;2.53;;
54167;SDS011;40072;50.958;3.592;2022-07-22T06:26:54;7.15;;;2.75;;
54167;SDS011;40072;50.958;3.592;2022-07-22T06:29:20;6.60;;;2.45;;
54167;SDS011;40072;50.958;3.592;2022-07-22T06:31:46;13.40;;;2.40;;
54167;SDS011;40072;50.958;3.592;2022-07-22T06:34:12;8.25;;;2.28;;
54167;SDS011;40072;50.958;3.592;2022-07-22T06:36:37;10.45;;;2.85;;
54167;SDS011;40072;50.958;3.592;2022-07-22T06:39:03;7.32;;;2.40;;
54167;SDS011;40072;50.958;3.592;2022-07-22T06:41:28;5.30;;;1.90;;
54167;SDS011;40072;50.958;3.592;2022-07-22T06:43:54;8.75;;;2.15;;
54167;SDS011;40072;50.958;3.592;2022-07-22T06:46:20;10.57;;;3.20;;
54167;SDS011;40072;50.958;3.592;2022-07-22T06:48:45;12.20;;;2.63;;
54167;SDS011;40072;50.958;3.592;2022-07-22T06:51:11;9.82;;;2.95;;
54167;SDS011;40072;50.958;3.592;2022-07-22T06:53:37;16.33;;;2.88;;
54167;SDS011;40072;50.958;3.592;2022-07-22T06:56:03;9.02;;;2.45;;
54167;SDS011;40072;50.958;3.592;2022-07-22T06:58:29;11.30;;;2.50;;
54167;SDS011;40072;50.958;3.592;2022-07-22T07:00:55;15.75;;;2.40;;
54167;SDS011;40072;50.958;3.592;2022-07-22T07:03:20;11.10;;;2.10;;
54167;SDS011;40072;50.958;3.592;2022-07-22T07:05:47;12.85;;;2.70;;
54167;SDS011;40072;50.958;3.592;2022-07-22T07:08:13;6.35;;;2.00;;
54167;SDS011;40072;50.958;3.592;2022-07-22T07:10:39;10.98;;;2.33;;
54167;SDS011;40072;50.958;3.592;2022-07-22T07:13:04;12.80;;;2.28;;
54167;SDS011;40072;50.958;3.592;2022-07-22T07:15:30;9.68;;;2.55;;
54167;SDS011;40072;50.958;3.592;2022-07-22T07:17:56;7.47;;;2.10;;
54167;SDS011;40072;50.958;3.592;2022-07-22T07:20:22;13.52;;;2.22;;
54167;SDS011;40072;50.958;3.592;2022-07-22T07:22:49;9.20;;;2.03;;
54167;SDS011;40072;50.958;3.592;2022-07-22T07:25:15;6.95;;;1.88;;
54167;SDS011;40072;50.958;3.592;2022-07-22T07:27:42;7.75;;;1.90;;
54167;SDS011;40072;50.958;3.592;2022-07-22T07:30:08;11.20;;;2.25;;
54167;SDS011;40072;50.958;3.592;2022-07-22T07:32:34;8.73;;;2.22;;
54167;SDS011;40072;50.958;3.592;2022-07-22T07:35:01;10.07;;;2.58;;
54167;SDS011;40072;50.958;3.592;2022-07-22T07:37:28;7.47;;;1.85;;
54167;SDS011;40072;50.958;3.592;2022-07-22T07:39:54;8.43;;;2.03;;
54167;SDS011;40072;50.958;3.592;2022-07-22T07:42:19;10.05;;;2.25;;
54167;SDS011;40072;50.958;3.592;2022-07-22T07:44:45;10.93;;;2.38;;
54167;SDS011;40072;50.958;3.592;2022-07-22T07:47:11;9.95;;;2.30;;
54167;SDS011;40072;50.958;3.592;2022-07-22T07:49:40;10.43;;;1.83;;
54167;SDS011;40072;50.958;3.592;2022-07-22T07:52:06;6.63;;;2.00;;
54167;SDS011;40072;50.958;3.592;2022-07-22T07:54:32;8.38;;;1.90;;
54167;SDS011;40072;50.958;3.592;2022-07-22T07:56:57;12.02;;;2.58;;
54167;SDS011;40072;50.958;3.592;2022-07-22T07:59:23;8.05;;;1.92;;
54167;SDS011;40072;50.958;3.592;2022-07-22T08:01:48;7.57;;;1.70;;
54167;SDS011;40072;50.958;3.592;2022-07-22T08:04:14;9.00;;;2.13;;
54167;SDS011;40072;50.958;3.592;2022-07-22T08:06:40;9.30;;;1.80;;
54167;SDS011;40072;50.958;3.592;2022-07-22T08:09:05;12.07;;;2.30;;
54167;SDS011;40072;50.958;3.592;2022-07-22T08:11:31;8.85;;;2.05;;
54167;SDS011;40072;50.958;3.592;2022-07-22T08:13:56;5.43;;;2.28;;
54167;SDS011;40072;50.958;3.592;2022-07-22T08:16:22;10.13;;;3.47;;
54167;SDS011;40072;50.958;3.592;2022-07-22T08:18:48;16.95;;;2.90;;
54167;SDS011;40072;50.958;3.592;2022-07-22T08:21:13;11.18;;;2.63;;
54167;SDS011;40072;50.958;3.592;2022-07-22T08:23:39;9.90;;;2.95;;
54167;SDS011;40072;50.958;3.592;2022-07-22T08:26:05;7.20;;;2.83;;
54167;SDS011;40072;50.958;3.592;2022-07-22T08:28:31;12.25;;;2.92;;
54167;SDS011;40072;50.958;3.592;2022-07-22T08:30:56;10.90;;;2.80;;
54167;SDS011;40072;50.958;3.592;2022-07-22T08:33:22;19.98;;;3.10;;
54167;SDS011;40072;50.958;3.592;2022-07-22T08:35:47;8.95;;;3.13;;
54167;SDS011;40072;50.958;3.592;2022-07-22T08:38:13;13.15;;;3.17;;
54167;SDS011;40072;50.958;3.592;2022-07-22T08:40:39;8.88;;;3.17;;
54167;SDS011;40072;50.958;3.592;2022-07-22T08:43:04;10.40;;;2.83;;
54167;SDS011;40072;50.958;3.592;2022-07-22T08:45:30;13.90;;;3.63;;
54167;SDS011;40072;50.958;3.592;2022-07-22T08:47:56;9.40;;;3.08;;
54167;SDS011;40072;50.958;3.592;2022-07-22T08:50:24;12.63;;;3.33;;
54167;SDS011;40072;50.958;3.592;2022-07-22T08:52:50;12.07;;;3.50;;
54167;SDS011;40072;50.958;3.592;2022-07-22T08:55:16;10.10;;;3.30;;
54167;SDS011;40072;50.958;3.592;2022-07-22T08:57:45;13.82;;;3.63;;
54167;SDS011;40072;50.958;3.592;2022-07-22T09:00:12;13.40;;;2.90;;
54167;SDS011;40072;50.958;3.592;2022-07-22T09:02:43;20.70;;;3.55;;
54167;SDS011;40072;50.958;3.592;2022-07-22T09:05:10;13.80;;;3.03;;
54167;SDS011;40072;50.958;3.592;2022-07-22T09:07:39;7.68;;;3.33;;
54167;SDS011;40072;50.958;3.592;2022-07-22T09:10:07;8.02;;;2.95;;
54167;SDS011;40072;50.958;3.592;2022-07-22T09:12:49;12.48;;;3.30;;
54167;SDS011;40072;50.958;3.592;2022-07-22T09:15:28;9.48;;;3.28;;
54167;SDS011;40072;50.958;3.592;2022-07-22T09:17:58;11.75;;;3.28;;
54167;SDS011;40072;50.958;3.592;2022-07-22T09:20:25;12.32;;;3.67;;
54167;SDS011;40072;50.958;3.592;2022-07-22T09:22:51;11.93;;;3.38;;
54167;SDS011;40072;50.958;3.592;2022-07-22T09:28:17;10.30;;;3.38;;
54167;SDS011;40072;50.958;3.592;2022-07-22T09:30:52;12.85;;;3.67;;
54167;SDS011;40072;50.958;3.592;2022-07-22T09:33:19;11.55;;;3.90;;
54167;SDS011;40072;50.958;3.592;2022-07-22T09:35:46;5.07;;;3.33;;
54167;SDS011;40072;50.958;3.592;2022-07-22T09:38:13;9.43;;;4.20;;
54167;SDS011;40072;50.958;3.592;2022-07-22T09:40:41;12.80;;;4.88;;
54167;SDS011;40072;50.958;3.592;2022-07-22T09:43:10;9.70;;;4.93;;
54167;SDS011;40072;50.958;3.592;2022-07-22T09:48:11;5.32;;;3.45;;
54167;SDS011;40072;50.958;3.592;2022-07-22T09:50:37;12.43;;;4.10;;
54167;SDS011;40072;50.958;3.592;2022-07-22T09:53:03;8.30;;;4.35;;
54167;SDS011;40072;50.958;3.592;2022-07-22T09:55:28;10.77;;;4.40;;
54167;SDS011;40072;50.958;3.592;2022-07-22T09:57:55;8.73;;;4.60;;
54167;SDS011;40072;50.958;3.592;2022-07-22T10:00:27;9.60;;;5.32;;
54167;SDS011;40072;50.958;3.592;2022-07-22T10:02:54;9.05;;;4.50;;
54167;SDS011;40072;50.958;3.592;2022-07-22T10:05:22;6.80;;;4.30;;
54167;SDS011;40072;50.958;3.592;2022-07-22T10:07:54;9.35;;;5.00;;
54167;SDS011;40072;50.958;3.592;2022-07-22T10:10:21;11.48;;;5.53;;
54167;SDS011;40072;50.958;3.592;2022-07-22T10:12:49;9.75;;;4.70;;
54167;SDS011;40072;50.958;3.592;2022-07-22T10:15:17;7.75;;;4.88;;
54167;SDS011;40072;50.958;3.592;2022-07-22T10:17:45;17.17;;;5.90;;
54167;SDS011;40072;50.958;3.592;2022-07-22T10:20:15;11.93;;;5.30;;
54167;SDS011;40072;50.958;3.592;2022-07-22T10:22:53;9.68;;;5.22;;
54167;SDS011;40072;50.958;3.592;2022-07-22T10:25:22;12.40;;;5.32;;
54167;SDS011;40072;50.958;3.592;2022-07-22T10:27:52;10.70;;;4.80;;
54167;SDS011;40072;50.958;3.592;2022-07-22T10:30:19;5.95;;;4.03;;
54167;SDS011;40072;50.958;3.592;2022-07-22T10:33:06;5.57;;;4.03;;
54167;SDS011;40072;50.958;3.592;2022-07-22T10:38:09;8.77;;;4.07;;
54167;SDS011;40072;50.958;3.592;2022-07-22T10:41:11;6.05;;;3.30;;
54167;SDS011;40072;50.958;3.592;2022-07-22T10:46:06;7.93;;;3.70;;
54167;SDS011;40072;50.958;3.592;2022-07-22T10:51:05;10.57;;;3.65;;
54167;SDS011;40072;50.958;3.592;2022-07-22T10:53:39;6.03;;;2.90;;
54167;SDS011;40072;50.958;3.592;2022-07-22T10:56:31;7.93;;;4.28;;
54167;SDS011;40072;50.958;3.592;2022-07-22T11:01:35;4.88;;;3.30;;
54167;SDS011;40072;50.958;3.592;2022-07-22T11:04:11;9.07;;;3.83;;
54167;SDS011;40072;50.958;3.592;2022-07-22T11:06:39;5.68;;;3.22;;
54167;SDS011;40072;50.958;3.592;2022-07-22T11:09:06;8.88;;;4.30;;
54167;SDS011;40072;50.958;3.592;2022-07-22T11:11:41;7.20;;;4.03;;
54167;SDS011;40072;50.958;3.592;2022-07-22T11:16:50;8.05;;;4.38;;
54167;SDS011;40072;50.958;3.592;2022-07-22T11:19:27;7.70;;;3.53;;
54167;SDS011;40072;50.958;3.592;2022-07-22T11:21:55;6.40;;;3.58;;
54167;SDS011;40072;50.958;3.592;2022-07-22T11:24:27;12.57;;;4.22;;
54167;SDS011;40072;50.958;3.592;2022-07-22T11:26:54;10.07;;;4.55;;
54167;SDS011;40072;50.958;3.592;2022-07-22T11:29:25;8.27;;;3.88;;
54167;SDS011;40072;50.958;3.592;2022-07-22T11:31:58;9.45;;;4.72;;
54167;SDS011;40072;50.958;3.592;2022-07-22T11:34:25;6.20;;;4.03;;
54167;SDS011;40072;50.958;3.592;2022-07-22T11:36:52;7.93;;;3.80;;
54167;SDS011;40072;50.958;3.592;2022-07-22T11:39:23;9.10;;;3.67;;
54167;SDS011;40072;50.958;3.592;2022-07-22T11:41:51;6.85;;;3.75;;
54167;SDS011;40072;50.958;3.592;2022-07-22T11:44:21;11.02;;;3.65;;
54167;SDS011;40072;50.958;3.592;2022-07-22T11:46:49;12.65;;;4.38;;
54167;SDS011;40072;50.958;3.592;2022-07-22T11:49:16;11.27;;;4.55;;
54167;SDS011;40072;50.958;3.592;2022-07-22T11:51:45;9.63;;;4.38;;
54167;SDS011;40072;50.958;3.592;2022-07-22T11:54:12;9.40;;;4.97;;
54167;SDS011;40072;50.958;3.592;2022-07-22T11:56:38;10.18;;;3.65;;
54167;SDS011;40072;50.958;3.592;2022-07-22T11:59:05;7.00;;;4.82;;
54167;SDS011;40072;50.958;3.592;2022-07-22T12:01:32;8.45;;;4.68;;
54167;SDS011;40072;50.958;3.592;2022-07-22T12:04:00;8.27;;;4.57;;
54167;SDS011;40072;50.958;3.592;2022-07-22T12:06:28;12.13;;;4.80;;
54167;SDS011;40072;50.958;3.592;2022-07-22T12:09:08;7.30;;;4.63;;
54167;SDS011;40072;50.958;3.592;2022-07-22T12:11:48;12.23;;;5.50;;
54167;SDS011;40072;50.958;3.592;2022-07-22T12:14:15;10.23;;;5.30;;
54167;SDS011;40072;50.958;3.592;2022-07-22T12:16:43;11.45;;;4.85;;
54167;SDS011;40072;50.958;3.592;2022-07-22T12:19:19;13.02;;;5.20;;
54167;SDS011;40072;50.958;3.592;2022-07-22T12:21:52;9.93;;;5.28;;
54167;SDS011;40072;50.958;3.592;2022-07-22T12:26:53;10.38;;;4.55;;
54167;SDS011;40072;50.958;3.592;2022-07-22T12:29:25;9.82;;;5.20;;
54167;SDS011;40072;50.958;3.592;2022-07-22T12:31:51;9.10;;;4.78;;
54167;SDS011;40072;50.958;3.592;2022-07-22T12:34:29;6.90;;;4.50;;
54167;SDS011;40072;50.958;3.592;2022-07-22T12:37:19;6.88;;;4.35;;
54167;SDS011;40072;50.958;3.592;2022-07-22T12:39:56;10.32;;;4.30;;
54167;SDS011;40072;50.958;3.592;2022-07-22T12:42:39;11.90;;;4.53;;
54167;SDS011;40072;50.958;3.592;2022-07-22T12:45:08;10.60;;;4.20;;
54167;SDS011;40072;50.958;3.592;2022-07-22T12:50:35;8.32;;;4.40;;
54167;SDS011;40072;50.958;3.592;2022-07-22T12:53:06;13.23;;;5.03;;
54167;SDS011;40072;50.958;3.592;2022-07-22T12:55:32;10.52;;;4.88;;
54167;SDS011;40072;50.958;3.592;2022-07-22T12:57:59;9.43;;;4.10;;
54167;SDS011;40072;50.958;3.592;2022-07-22T13:00:27;12.15;;;4.15;;
54167;SDS011;40072;50.958;3.592;2022-07-22T13:02:55;7.63;;;3.83;;
54167;SDS011;40072;50.958;3.592;2022-07-22T13:05:22;11.20;;;4.43;;
54167;SDS011;40072;50.958;3.592;2022-07-22T13:07:49;10.95;;;3.83;;
54167;SDS011;40072;50.958;3.592;2022-07-22T13:10:15;9.13;;;5.18;;
54167;SDS011;40072;50.958;3.592;2022-07-22T13:12:41;16.00;;;5.30;;
54167;SDS011;40072;50.958;3.592;2022-07-22T13:15:07;9.23;;;4.65;;
54167;SDS011;40072;50.958;3.592;2022-07-22T13:17:34;9.32;;;5.10;;
54167;SDS011;40072;50.958;3.592;2022-07-22T13:20:00;11.27;;;4.68;;
54167;SDS011;40072;50.958;3.592;2022-07-22T13:22:26;12.10;;;4.65;;
54167;SDS011;40072;50.958;3.592;2022-07-22T13:24:52;11.65;;;4.78;;
54167;SDS011;40072;50.958;3.592;2022-07-22T13:27:17;8.38;;;5.45;;
54167;SDS011;40072;50.958;3.592;2022-07-22T13:29:43;9.50;;;5.53;;
54167;SDS011;40072;50.958;3.592;2022-07-22T13:32:09;11.13;;;6.30;;
54167;SDS011;40072;50.958;3.592;2022-07-22T13:34:34;7.25;;;4.95;;
54167;SDS011;40072;50.958;3.592;2022-07-22T13:37:00;10.27;;;5.20;;
54167;SDS011;40072;50.958;3.592;2022-07-22T13:39:26;11.25;;;5.88;;
54167;SDS011;40072;50.958;3.592;2022-07-22T13:41:53;9.70;;;5.85;;
54167;SDS011;40072;50.958;3.592;2022-07-22T13:44:19;9.20;;;5.13;;
54167;SDS011;40072;50.958;3.592;2022-07-22T13:46:45;9.23;;;5.40;;
54167;SDS011;40072;50.958;3.592;2022-07-22T13:49:11;10.98;;;5.72;;
54167;SDS011;40072;50.958;3.592;2022-07-22T13:51:37;12.30;;;5.85;;
54167;SDS011;40072;50.958;3.592;2022-07-22T13:54:03;9.50;;;5.80;;
54167;SDS011;40072;50.958;3.592;2022-07-22T13:56:30;7.15;;;4.78;;
54167;SDS011;40072;50.958;3.592;2022-07-22T13:58:57;12.18;;;5.10;;
54167;SDS011;40072;50.958;3.592;2022-07-22T14:01:23;8.10;;;4.07;;
54167;SDS011;40072;50.958;3.592;2022-07-22T14:03:48;9.48;;;4.63;;
54167;SDS011;40072;50.958;3.592;2022-07-22T14:06:14;9.38;;;4.93;;
54167;SDS011;40072;50.958;3.592;2022-07-22T14:08:40;8.02;;;4.88;;
54167;SDS011;40072;50.958;3.592;2022-07-22T14:11:05;14.55;;;5.13;;
54167;SDS011;40072;50.958;3.592;2022-07-22T14:13:31;8.70;;;5.15;;
54167;SDS011;40072;50.958;3.592;2022-07-22T14:15:57;7.97;;;4.82;;
54167;SDS011;40072;50.958;3.592;2022-07-22T14:18:42;19.35;;;6.13;;
54167;SDS011;40072;50.958;3.592;2022-07-22T14:21:08;12.85;;;4.80;;
54167;SDS011;40072;50.958;3.592;2022-07-22T14:23:33;10.30;;;4.55;;
54167;SDS011;40072;50.958;3.592;2022-07-22T14:25:59;13.13;;;5.65;;
54167;SDS011;40072;50.958;3.592;2022-07-22T14:28:24;13.98;;;5.85;;
54167;SDS011;40072;50.958;3.592;2022-07-22T14:30:50;12.20;;;4.85;;
54167;SDS011;40072;50.958;3.592;2022-07-22T14:33:16;12.43;;;6.03;;
54167;SDS011;40072;50.958;3.592;2022-07-22T14:35:41;10.77;;;5.40;;
54167;SDS011;40072;50.958;3.592;2022-07-22T14:38:07;10.27;;;5.38;;
54167;SDS011;40072;50.958;3.592;2022-07-22T14:40:32;9.73;;;4.88;;
54167;SDS011;40072;50.958;3.592;2022-07-22T14:42:58;11.05;;;5.40;;
54167;SDS011;40072;50.958;3.592;2022-07-22T14:45:24;14.13;;;5.20;;
54167;SDS011;40072;50.958;3.592;2022-07-22T14:47:49;8.57;;;5.05;;
54167;SDS011;40072;50.958;3.592;2022-07-22T14:50:15;11.32;;;4.93;;
54167;SDS011;40072;50.958;3.592;2022-07-22T14:52:41;8.60;;;4.78;;
54167;SDS011;40072;50.958;3.592;2022-07-22T14:55:06;14.40;;;5.57;;
54167;SDS011;40072;50.958;3.592;2022-07-22T14:57:32;8.70;;;4.88;;
54167;SDS011;40072;50.958;3.592;2022-07-22T14:59:58;9.82;;;5.00;;